createdAt,value
2018-10-11T00:01:37.498Z,102530.39
2018-10-11T00:04:05.994Z,102537.47
2018-10-11T00:06:34.562Z,102538.49
2018-10-11T00:09:03.030Z,102538.91
2018-10-11T00:11:31.427Z,102539.88
2018-10-11T00:14:00.498Z,102532.44
2018-10-11T00:16:28.894Z,102535.14
2018-10-11T00:18:57.287Z,102534.72
2018-10-11T00:21:26.566Z,102538.32
2018-10-11T00:23:54.999Z,102533.05
2018-10-11T00:26:23.461Z,102536.70
2018-10-11T00:28:52.323Z,102532.81
2018-10-11T00:31:21.190Z,102534.55
2018-10-11T00:33:49.586Z,102537.97
2018-10-11T00:36:18.099Z,102541.38
2018-10-11T00:38:46.850Z,102546.30
2018-10-11T00:41:15.537Z,102541.92
2018-10-11T00:43:44.296Z,102538.80
2018-10-11T00:46:12.686Z,102533.59
2018-10-11T00:48:41.150Z,102530.89
2018-10-11T00:51:09.894Z,102538.45
2018-10-11T00:53:38.286Z,102540.19
2018-10-11T00:56:06.702Z,102533.17
2018-10-11T00:58:35.672Z,102538.02
2018-10-11T01:01:04.078Z,102538.45
2018-10-11T01:03:32.491Z,102540.12
2018-10-11T01:06:01.379Z,102542.82
2018-10-11T01:08:29.766Z,102546.72
2018-10-11T01:10:58.547Z,102546.66
2018-10-11T01:13:27.183Z,102542.82
2018-10-11T01:15:55.771Z,102543.47
2018-10-11T01:18:24.174Z,102545.63
2018-10-11T01:20:52.699Z,102546.41
2018-10-11T01:23:21.117Z,102538.84
2018-10-11T01:25:49.519Z,102548.92
2018-10-11T01:28:18.324Z,102553.17
2018-10-11T01:30:51.896Z,102546.09
2018-10-11T01:33:20.811Z,102550.41
2018-10-11T01:35:49.203Z,102559.98
2018-10-11T01:38:17.638Z,102550.63
2018-10-11T01:40:46.191Z,102551.88
2018-10-11T01:43:14.645Z,102558.35
2018-10-11T01:45:43.076Z,102554.81
2018-10-11T01:48:11.797Z,102562.24
2018-10-11T01:50:40.222Z,102556.48
2018-10-11T01:53:08.652Z,102556.84
2018-10-11T01:55:37.349Z,102552.82
2018-10-11T01:58:05.954Z,102559.34
2018-10-11T02:00:34.371Z,102561.50
2018-10-11T02:03:03.030Z,102556.23
2018-10-11T02:05:31.434Z,102557.00
2018-10-11T02:08:00.071Z,102556.87
2018-10-11T02:10:29.358Z,102558.95
2018-10-11T02:12:58.796Z,102551.75
2018-10-11T02:15:28.045Z,102556.89
2018-10-11T02:17:57.276Z,102554.67
2018-10-11T02:20:26.198Z,102552.45
2018-10-11T02:22:54.617Z,102558.56
2018-10-11T02:25:23.138Z,102554.96
2018-10-11T02:27:51.559Z,102552.61
2018-10-11T02:30:19.988Z,102561.28
2018-10-11T02:32:48.482Z,102566.08
2018-10-11T02:35:17.086Z,102562.95
2018-10-11T02:37:45.485Z,102563.30
2018-10-11T02:40:13.968Z,102572.53
2018-10-11T02:42:42.915Z,102576.41
2018-10-11T02:45:11.582Z,102568.44
2018-10-11T02:47:40.251Z,102559.92
2018-10-11T02:50:08.978Z,102556.73
2018-10-11T02:52:37.404Z,102563.19
2018-10-11T02:55:06.298Z,102559.72
2018-10-11T02:57:45.903Z,102553.06
2018-10-11T03:00:14.758Z,102548.63
2018-10-11T03:02:44.795Z,102548.36
2018-10-11T03:05:15.972Z,102559.17
2018-10-11T03:07:44.914Z,102565.63
2018-10-11T03:10:13.420Z,102551.48
2018-10-11T03:12:42.238Z,102554.88
2018-10-11T03:15:17.379Z,102557.70
2018-10-11T03:17:45.921Z,102558.39
2018-10-11T03:20:14.598Z,102555.96
2018-10-11T03:22:43.035Z,102562.78
2018-10-11T03:25:11.806Z,102561.13
2018-10-11T03:27:40.203Z,102521.82
2018-10-11T03:30:08.694Z,102565.06
2018-10-11T03:32:37.270Z,102564.78
2018-10-11T03:35:05.694Z,102565.87
2018-10-11T03:37:34.394Z,102560.40
2018-10-11T03:40:02.854Z,102565.94
2018-10-11T03:42:31.302Z,102564.89
2018-10-11T03:44:59.929Z,102567.79
2018-10-11T03:47:28.366Z,102569.72
2018-10-11T03:49:56.757Z,102569.56
2018-10-11T03:52:25.171Z,102574.69
2018-10-11T03:54:54.143Z,102573.14
2018-10-11T03:57:22.558Z,102570.44
2018-10-11T03:59:51.038Z,102563.64
2018-10-11T04:02:20.304Z,102566.88
2018-10-11T04:04:48.732Z,102566.73
2018-10-11T04:07:17.153Z,102559.37
2018-10-11T04:09:46.018Z,102565.45
2018-10-11T04:12:14.429Z,102567.03
2018-10-11T04:14:42.863Z,102577.73
2018-10-11T04:17:11.339Z,102580.14
2018-10-11T04:19:39.807Z,102584.76
2018-10-11T04:22:08.487Z,102586.41
2018-10-11T04:24:37.011Z,102584.45
2018-10-11T04:27:05.455Z,102581.33
2018-10-11T04:29:33.878Z,102583.80
2018-10-11T04:32:02.687Z,102581.02
2018-10-11T04:34:31.357Z,102587.93
2018-10-11T04:36:59.787Z,102589.58
2018-10-11T04:39:28.710Z,102584.66
2018-10-11T04:41:57.142Z,102590.25
2018-10-11T04:44:25.820Z,102589.75
2018-10-11T04:46:54.356Z,102579.54
2018-10-11T04:49:22.816Z,102586.37
2018-10-11T04:51:51.286Z,102585.80
2018-10-11T04:54:19.779Z,102589.58
2018-10-11T04:56:48.178Z,102585.64
2018-10-11T04:59:16.745Z,102578.58
2018-10-11T05:01:45.579Z,102580.23
2018-10-11T05:04:14.022Z,102583.59
2018-10-11T05:06:42.474Z,102587.95
2018-10-11T05:09:10.990Z,102570.72
2018-10-11T05:11:40.024Z,102573.19
2018-10-11T05:14:08.874Z,102579.11
2018-10-11T05:16:37.463Z,102580.75
2018-10-11T05:19:06.449Z,102581.57
2018-10-11T05:21:35.293Z,102579.28
2018-10-11T05:24:03.979Z,102588.80
2018-10-11T05:26:32.445Z,102598.73
2018-10-11T05:29:01.004Z,102593.33
2018-10-11T05:31:30.281Z,102597.18
2018-10-11T05:33:58.862Z,102606.70
2018-10-11T05:36:27.333Z,102605.72
2018-10-11T05:38:55.897Z,102596.53
2018-10-11T05:41:24.584Z,102605.56
2018-10-11T05:43:53.205Z,102609.42
2018-10-11T05:46:23.723Z,102430.73
2018-10-11T05:48:52.330Z,102609.00
2018-10-11T05:51:22.034Z,102609.00
2018-10-11T05:53:51.709Z,102607.53
2018-10-11T05:56:21.433Z,102615.16
2018-10-11T05:58:51.375Z,102613.02
2018-10-11T06:01:20.305Z,102618.28
2018-10-11T06:03:48.949Z,102619.18
2018-10-11T06:06:23.941Z,102623.20
2018-10-11T06:08:53.288Z,102615.56
2018-10-11T06:11:21.894Z,102629.35
2018-10-11T06:13:51.185Z,102634.27
2018-10-11T06:16:19.685Z,102633.36
2018-10-11T06:18:48.253Z,102634.91
2018-10-11T06:21:17.723Z,102633.42
2018-10-11T06:23:46.308Z,102636.45
2018-10-11T06:26:15.141Z,102646.84
2018-10-11T06:28:44.087Z,102644.68
2018-10-11T06:31:12.686Z,102646.39
2018-10-11T06:33:42.293Z,102654.52
2018-10-11T06:36:11.013Z,102655.98
2018-10-11T06:38:39.523Z,102653.89
2018-10-11T06:41:08.042Z,102652.78
2018-10-11T06:43:37.465Z,102663.20
2018-10-11T06:46:06.261Z,102660.34
2018-10-11T06:48:35.247Z,102652.09
2018-10-11T06:51:04.114Z,102650.77
2018-10-11T06:53:32.688Z,102652.05
2018-10-11T06:56:01.392Z,102654.30
2018-10-11T06:58:30.379Z,102652.09
2018-10-11T07:00:58.893Z,102655.48
2018-10-11T07:03:27.447Z,102660.09
2018-10-11T07:05:56.494Z,102661.92
2018-10-11T07:08:25.263Z,102651.44
2018-10-11T07:10:53.714Z,102658.23
2018-10-11T07:13:22.262Z,102652.16
2018-10-11T07:15:50.733Z,102655.84
2018-10-11T07:18:19.229Z,102659.21
2018-10-11T07:20:47.829Z,102664.31
2018-10-11T07:23:16.320Z,102662.56
2018-10-11T07:25:44.907Z,102660.70
2018-10-11T07:28:13.634Z,102665.30
2018-10-11T07:30:42.180Z,102658.83
2018-10-11T07:33:10.638Z,102664.11
2018-10-11T07:35:39.643Z,102669.89
2018-10-11T07:38:08.133Z,102667.16
2018-10-11T07:40:37.353Z,102672.13
2018-10-11T07:43:05.903Z,102665.48
2018-10-11T07:45:34.718Z,102665.19
2018-10-11T07:48:03.170Z,102668.91
2018-10-11T07:50:31.869Z,102675.22
2018-10-11T07:53:00.397Z,102668.25
2018-10-11T07:55:28.840Z,102672.68
2018-10-11T07:57:57.510Z,102671.59
2018-10-11T08:00:25.977Z,102665.35
2018-10-11T08:02:54.429Z,102662.83
2018-10-11T08:05:23.354Z,102662.54
2018-10-11T08:07:51.928Z,102673.31
2018-10-11T08:10:20.470Z,102669.88
2018-10-11T08:12:49.346Z,102669.11
2018-10-11T08:15:18.230Z,102670.91
2018-10-11T08:17:47.037Z,102670.53
2018-10-11T08:20:15.399Z,102663.55
2018-10-11T08:22:43.827Z,102673.91
2018-10-11T08:25:12.454Z,102671.07
2018-10-11T08:27:41.928Z,102674.61
2018-10-11T08:30:10.754Z,102678.70
2018-10-11T08:32:39.504Z,102686.28
2018-10-11T08:35:07.892Z,102684.06
2018-10-11T08:37:36.501Z,102682.81
2018-10-11T08:40:05.351Z,102675.45
2018-10-11T08:42:34.815Z,102690.64
2018-10-11T08:45:03.331Z,102687.58
2018-10-11T08:47:33.025Z,102701.41
2018-10-11T08:50:01.845Z,102690.53
2018-10-11T08:52:30.310Z,102684.41
2018-10-11T08:54:58.829Z,102686.35
2018-10-11T08:57:27.653Z,102692.66
2018-10-11T08:59:56.125Z,102687.38
2018-10-11T09:02:24.581Z,102690.31
2018-10-11T09:04:53.241Z,102686.02
2018-10-11T09:07:21.705Z,102703.03
2018-10-11T09:09:53.565Z,102687.07
2018-10-11T09:12:19.110Z,102680.55
2018-10-11T09:14:47.589Z,102682.28
2018-10-11T09:17:16.114Z,102685.19
2018-10-11T09:19:44.769Z,102693.16
2018-10-11T09:22:13.637Z,102696.35
2018-10-11T09:24:42.816Z,102697.19
2018-10-11T09:27:11.503Z,102696.42
2018-10-11T09:29:39.967Z,102683.30
2018-10-11T09:32:08.831Z,102688.22
2018-10-11T09:34:37.666Z,102682.23
2018-10-11T09:37:06.180Z,102690.64
2018-10-11T09:39:34.794Z,102689.25
2018-10-11T09:42:04.025Z,102681.34
2018-10-11T09:44:32.489Z,102679.53
2018-10-11T09:47:02.759Z,102678.50
2018-10-11T09:49:31.673Z,102679.53
2018-10-11T09:52:00.213Z,102681.27
2018-10-11T09:54:28.768Z,102684.75
2018-10-11T09:57:31.567Z,102689.05
2018-10-11T10:00:01.174Z,102691.91
2018-10-11T10:02:30.241Z,102572.70
2018-10-11T10:05:02.131Z,102699.17
2018-10-11T10:07:30.824Z,102715.41
2018-10-11T10:09:59.382Z,102700.28
2018-10-11T10:12:27.956Z,102693.07
2018-10-11T10:14:56.974Z,102686.53
2018-10-11T10:17:25.759Z,102689.86
2018-10-11T10:19:55.474Z,102682.93
2018-10-11T10:22:23.932Z,102680.71
2018-10-11T10:24:52.389Z,102677.64
2018-10-11T10:27:21.303Z,102690.95
2018-10-11T10:29:49.678Z,102683.19
2018-10-11T10:32:18.302Z,102678.06
2018-10-11T10:34:47.189Z,102680.34
2018-10-11T10:37:15.693Z,102676.88
2018-10-11T10:39:44.296Z,102671.66
2018-10-11T10:42:12.885Z,102671.38
2018-10-11T10:44:41.492Z,102677.05
2018-10-11T10:47:09.962Z,102660.13
2018-10-11T10:49:38.753Z,102666.30
2018-10-11T10:52:07.361Z,102656.61
2018-10-11T10:54:36.418Z,102662.37
2018-10-11T10:57:05.442Z,102632.63
2018-10-11T10:59:35.039Z,102654.19
2018-10-11T11:02:03.635Z,102656.89
2018-10-11T11:04:32.253Z,102652.03
2018-10-11T11:07:00.717Z,102656.06
2018-10-11T11:09:29.188Z,102658.70
2018-10-11T11:11:58.189Z,102647.27
2018-10-11T11:14:26.765Z,102642.63
2018-10-11T11:16:55.441Z,102642.76
2018-10-11T11:19:24.158Z,102642.14
2018-10-11T11:21:52.665Z,102641.66
2018-10-11T11:24:21.137Z,102645.06
2018-10-11T11:26:49.733Z,102647.56
2018-10-11T11:29:18.250Z,102651.80
2018-10-11T11:31:47.553Z,102659.77
2018-10-11T11:34:16.265Z,102660.13
2018-10-11T11:36:44.736Z,102665.61
2018-10-11T11:39:13.202Z,102653.54
2018-10-11T11:41:42.090Z,102653.13
2018-10-11T11:44:10.628Z,102661.09
2018-10-11T11:46:39.809Z,102655.20
2018-10-11T11:49:08.784Z,102651.39
2018-10-11T11:51:37.609Z,102646.39
2018-10-11T11:54:10.270Z,102637.30
2018-10-11T11:56:38.826Z,102640.06
2018-10-11T11:59:07.311Z,102637.23
2018-10-11T12:01:35.792Z,102635.62
2018-10-11T12:04:04.460Z,102641.73
2018-10-11T12:06:32.945Z,102640.22
2018-10-11T12:09:01.766Z,102647.36
2018-10-11T12:11:30.268Z,102652.91
2018-10-11T12:13:58.738Z,102647.09
2018-10-11T12:16:27.259Z,102646.53
2018-10-11T12:18:56.342Z,102647.86
2018-10-11T12:21:24.788Z,102648.55
2018-10-11T12:23:53.289Z,102653.13
2018-10-11T12:26:22.039Z,102648.48
2018-10-11T12:28:50.533Z,102649.16
2018-10-11T12:31:19.034Z,102649.45
2018-10-11T12:33:47.742Z,102651.69
2018-10-11T12:36:16.707Z,102654.38
2018-10-11T12:38:45.294Z,102647.92
2018-10-11T12:41:14.102Z,102646.68
2018-10-11T12:43:43.276Z,102636.84
2018-10-11T12:46:12.078Z,102638.09
2018-10-11T12:48:40.805Z,102637.05
2018-10-11T12:51:09.297Z,102644.53
2018-10-11T12:53:41.119Z,102635.89
2018-10-11T12:56:07.578Z,102631.53
2018-10-11T12:58:36.134Z,102637.06
2018-10-11T13:01:04.761Z,102635.05
2018-10-11T13:03:33.505Z,102634.14
2018-10-11T13:06:01.986Z,102630.59
2018-10-11T13:08:30.851Z,102627.52
2018-10-11T13:10:59.410Z,102620.56
2018-10-11T13:13:27.873Z,102625.00
2018-10-11T13:15:59.463Z,102618.42
2018-10-11T13:18:25.625Z,102619.96
2018-10-11T13:20:54.073Z,102617.67
2018-10-11T13:23:22.539Z,102609.33
2018-10-11T13:25:51.365Z,102609.49
2018-10-11T13:28:19.862Z,102611.52
2018-10-11T13:30:48.458Z,102608.25
2018-10-11T13:33:17.118Z,102603.25
2018-10-11T13:35:45.572Z,102592.66
2018-10-11T13:38:14.441Z,102593.63
2018-10-11T13:40:43.204Z,102600.44
2018-10-11T13:43:11.762Z,102588.34
2018-10-11T13:45:40.254Z,102583.11
2018-10-11T13:48:09.014Z,102572.73
2018-10-11T13:50:37.482Z,102578.83
2018-10-11T13:53:06.266Z,102580.55
2018-10-11T13:55:35.306Z,102583.11
2018-10-11T13:58:03.810Z,102584.62
2018-10-11T14:00:32.330Z,102576.91
2018-10-11T14:03:00.933Z,102576.50
2018-10-11T14:05:29.605Z,102581.42
2018-10-11T14:07:58.110Z,102574.02
2018-10-11T14:10:26.814Z,102577.55
2018-10-11T14:12:55.437Z,102574.36
2018-10-11T14:15:23.935Z,102575.34
2018-10-11T14:17:52.608Z,102583.56
2018-10-11T14:20:21.042Z,102579.62
2018-10-11T14:22:49.728Z,102576.09
2018-10-11T14:25:18.343Z,102573.45
2018-10-11T14:27:46.862Z,102576.02
2018-10-11T14:30:15.386Z,102414.46
2018-10-11T14:32:44.470Z,102573.95
2018-10-11T14:35:12.957Z,102564.81
2018-10-11T14:37:41.440Z,102572.85
2018-10-11T14:40:10.406Z,102571.46
2018-10-11T14:42:38.954Z,102567.70
2018-10-11T14:45:07.690Z,102562.98
2018-10-11T14:47:36.247Z,102561.70
2018-10-11T14:50:04.817Z,102570.45
2018-10-11T14:52:33.325Z,102567.02
2018-10-11T14:55:01.795Z,102571.30
2018-10-11T14:57:30.404Z,102577.39
2018-10-11T14:59:59.081Z,102574.76
2018-10-11T15:02:27.641Z,102563.98
2018-10-11T15:04:56.118Z,102558.80
2018-10-11T15:07:24.742Z,102545.95
2018-10-11T15:09:53.403Z,102547.57
2018-10-11T15:12:21.864Z,102545.09
2018-10-11T15:14:50.402Z,102548.63
2018-10-11T15:17:18.950Z,102546.90
2018-10-11T15:19:47.528Z,102552.16
2018-10-11T15:22:16.017Z,102550.69
2018-10-11T15:24:45.168Z,102549.56
2018-10-11T15:27:13.693Z,102549.08
2018-10-11T15:29:42.167Z,102553.70
2018-10-11T15:32:10.957Z,102559.47
2018-10-11T15:34:39.638Z,102546.44
2018-10-11T15:37:08.316Z,102532.09
2018-10-11T15:39:36.858Z,102531.03
2018-10-11T15:42:05.486Z,102526.83
2018-10-11T15:44:34.001Z,102521.75
2018-10-11T15:47:02.635Z,102516.49
2018-10-11T15:49:31.350Z,102517.39
2018-10-11T15:51:59.804Z,102515.18
2018-10-11T15:54:28.355Z,102517.47
2018-10-11T15:56:56.854Z,102519.13
2018-10-11T15:59:25.495Z,102519.20
2018-10-11T16:01:54.336Z,102517.88
2018-10-11T16:04:22.777Z,102503.46
2018-10-11T16:06:51.639Z,102506.91
2018-10-11T16:09:20.947Z,102506.76
2018-10-11T16:11:49.709Z,102502.09
2018-10-11T16:14:18.222Z,102502.69
2018-10-11T16:16:48.046Z,102496.70
2018-10-11T16:19:17.114Z,102497.38
2018-10-11T16:21:45.661Z,102496.39
2018-10-11T16:24:14.331Z,102502.88
2018-10-11T16:26:42.898Z,102505.09
2018-10-11T16:29:11.498Z,102504.69
2018-10-11T16:31:40.062Z,102501.83
2018-10-11T16:34:08.815Z,102500.20
2018-10-11T16:36:37.392Z,102504.38
2018-10-11T16:39:08.001Z,102500.29
2018-10-11T16:41:36.394Z,102497.09
2018-10-11T16:44:04.982Z,102489.55
2018-10-11T16:46:33.751Z,102493.56
2018-10-11T16:49:02.265Z,102486.02
2018-10-11T16:51:31.166Z,102480.37
2018-10-11T16:54:00.096Z,102478.81
2018-10-11T16:56:28.717Z,102479.55
2018-10-11T16:58:57.278Z,102470.05
2018-10-11T17:01:25.984Z,102466.94
2018-10-11T17:03:54.450Z,102469.64
2018-10-11T17:06:22.924Z,102470.46
2018-10-11T17:08:51.815Z,102476.45
2018-10-11T17:11:20.329Z,102473.01
2018-10-11T17:13:48.885Z,102467.84
2018-10-11T17:16:17.644Z,102474.65
2018-10-11T17:18:46.136Z,102481.86
2018-10-11T17:21:14.758Z,102489.66
2018-10-11T17:23:43.274Z,102480.55
2018-10-11T17:26:11.794Z,102480.31
2018-10-11T17:28:40.349Z,102477.84
2018-10-11T17:31:09.161Z,102470.22
2018-10-11T17:33:37.662Z,102465.05
2018-10-11T17:36:06.239Z,102468.58
2018-10-11T17:38:34.966Z,102462.26
2018-10-11T17:41:03.448Z,102469.63
2018-10-11T17:43:31.997Z,102470.05
2018-10-11T17:46:01.607Z,102468.11
2018-10-11T17:48:30.113Z,102465.73
2018-10-11T17:50:58.673Z,102471.79
2018-10-11T17:53:27.334Z,102474.65
2018-10-11T17:55:55.820Z,102468.83
2018-10-11T17:58:24.466Z,102475.70
2018-10-11T18:00:53.309Z,102476.61
2018-10-11T18:03:22.020Z,102484.39
2018-10-11T18:05:50.486Z,102488.23
2018-10-11T18:08:19.411Z,102482.09
2018-10-11T18:10:47.896Z,102481.59
2018-10-11T18:13:16.395Z,102485.82
2018-10-11T18:15:45.177Z,102486.96
2018-10-11T18:18:13.794Z,102483.27
2018-10-11T18:20:42.353Z,102495.55
2018-10-11T18:23:11.251Z,102495.79
2018-10-11T18:25:39.709Z,102489.97
2018-10-11T18:28:08.197Z,102496.92
2018-10-11T18:30:36.793Z,102503.31
2018-10-11T18:33:05.306Z,102499.87
2018-10-11T18:35:34.181Z,102505.02
2018-10-11T18:38:03.054Z,102506.98
2018-10-11T18:40:31.534Z,102498.77
2018-10-11T18:43:00.042Z,102505.95
2018-10-11T18:45:28.598Z,102510.20
2018-10-11T18:47:57.350Z,102502.93
2018-10-11T18:50:25.866Z,102499.09
2018-10-11T18:52:54.494Z,102498.68
2018-10-11T18:55:23.003Z,102499.58
2018-10-11T18:57:51.592Z,102501.80
2018-10-11T19:00:20.129Z,102499.58
2018-10-11T19:02:48.626Z,102495.16
2018-10-11T19:05:17.405Z,102500.08
2018-10-11T19:07:46.051Z,102508.92
2018-10-11T19:10:14.534Z,102498.85
2018-10-11T19:12:43.031Z,102501.97
2018-10-11T19:15:11.721Z,102502.05
2018-10-11T19:17:40.230Z,102495.59
2018-10-11T19:20:08.825Z,102493.47
2018-10-11T19:22:37.567Z,102497.31
2018-10-11T19:25:06.063Z,102500.42
2018-10-11T19:27:34.580Z,102501.41
2018-10-11T19:30:03.151Z,102494.13
2018-10-11T19:32:31.609Z,102495.20
2018-10-11T19:35:00.105Z,102491.77
2018-10-11T19:37:28.998Z,102492.77
2018-10-11T19:39:57.464Z,102493.49
2018-10-11T19:42:26.094Z,102488.48
2018-10-11T19:44:54.632Z,102481.93
2018-10-11T19:47:23.097Z,102477.19
2018-10-11T19:49:52.037Z,102478.81
2018-10-11T19:52:20.752Z,102484.37
2018-10-11T19:54:49.320Z,102483.71
2018-10-11T19:57:17.823Z,102481.00
2018-10-11T19:59:46.372Z,102481.41
2018-10-11T20:02:14.853Z,102481.09
2018-10-11T20:04:44.140Z,102481.99
2018-10-11T20:07:13.188Z,102482.98
2018-10-11T20:09:42.289Z,102491.52
2018-10-11T20:12:10.790Z,102488.48
2018-10-11T20:14:39.550Z,102492.24
2018-10-11T20:17:08.171Z,102500.10
2018-10-11T20:19:36.686Z,102503.72
2018-10-11T20:22:05.386Z,102507.32
2018-10-11T20:24:33.862Z,102508.72
2018-10-11T20:27:02.394Z,102520.20
2018-10-11T20:29:31.022Z,102509.70
2018-10-11T20:31:59.489Z,102513.73
2018-10-11T20:34:27.995Z,102511.78
2018-10-11T20:36:56.625Z,102511.11
2018-10-11T20:39:25.078Z,102508.81
2018-10-11T20:41:53.582Z,102517.31
2018-10-11T20:44:22.246Z,102507.97
2018-10-11T20:46:50.758Z,102509.59
2018-10-11T20:49:19.311Z,102499.26
2018-10-11T20:51:47.940Z,102503.02
2018-10-11T20:54:16.457Z,102496.78
2018-10-11T20:56:44.930Z,102498.42
2018-10-11T20:59:13.395Z,102493.81
2018-10-11T21:01:41.898Z,102500.50
2018-10-11T21:04:10.405Z,102505.57
2018-10-11T21:06:38.935Z,102497.04
2018-10-11T21:09:09.375Z,102498.26
2018-10-11T21:11:37.866Z,102504.13
2018-10-11T21:14:06.495Z,102504.05
2018-10-11T21:16:34.981Z,102500.84
2018-10-11T21:19:03.570Z,102495.10
2018-10-11T21:21:32.797Z,102487.97
2018-10-11T21:24:01.485Z,102483.05
2018-10-11T21:26:30.007Z,102484.59
2018-10-11T21:28:58.557Z,102475.25
2018-10-11T21:31:27.077Z,102463.78
2018-10-11T21:33:55.566Z,102456.16
2018-10-11T21:36:24.328Z,102448.12
2018-10-11T21:38:52.857Z,102448.94
2018-10-11T21:41:21.338Z,102436.16
2018-10-11T21:43:49.899Z,102440.98
2018-10-11T21:46:18.470Z,102439.27
2018-10-11T21:48:46.937Z,102437.47
2018-10-11T21:51:15.393Z,102433.95
2018-10-11T21:53:44.254Z,102439.59
2018-10-11T21:56:12.772Z,102432.55
2018-10-11T21:58:41.305Z,102425.50
2018-10-11T22:01:15.063Z,102431.23
2018-10-11T22:03:43.964Z,102426.81
2018-10-11T22:06:12.420Z,102421.58
2018-10-11T22:08:41.515Z,102421.58
2018-10-11T22:11:11.050Z,102428.12
2018-10-11T22:13:39.502Z,102418.33
2018-10-11T22:16:08.930Z,102410.59
2018-10-11T22:18:37.511Z,102404.41
2018-10-11T22:21:06.002Z,102400.97
2018-10-11T22:23:34.577Z,102405.24
2018-10-11T22:26:04.608Z,102405.27
2018-10-11T22:28:33.189Z,102404.80
2018-10-11T22:31:01.714Z,102401.12
2018-10-11T22:33:30.269Z,102413.82
2018-10-11T22:36:05.514Z,102408.67
2018-10-11T22:38:34.190Z,102408.25
2018-10-11T22:41:03.098Z,102398.51
2018-10-11T22:43:31.612Z,102394.81
2018-10-11T22:46:00.157Z,102396.77
2018-10-11T22:48:28.617Z,102402.56
2018-10-11T22:50:57.125Z,102399.69
2018-10-11T22:53:25.857Z,102400.73
2018-10-11T22:55:54.861Z,102391.63
2018-10-11T22:58:23.420Z,102387.93
2018-10-11T23:00:51.969Z,102382.84
2018-10-11T23:03:20.435Z,102378.73
2018-10-11T23:05:49.099Z,102383.80
2018-10-11T23:08:17.969Z,102377.48
2018-10-11T23:10:46.430Z,102378.70
2018-10-11T23:13:15.091Z,102374.20
2018-10-11T23:15:43.645Z,102377.95
2018-10-11T23:18:18.894Z,102369.51
2018-10-11T23:20:47.453Z,102370.32
2018-10-11T23:23:15.905Z,102364.59
2018-10-11T23:25:44.370Z,102366.80
2018-10-11T23:28:13.285Z,102357.55
2018-10-11T23:30:41.750Z,102361.80
2018-10-11T23:33:10.262Z,102360.80
2018-10-11T23:35:38.790Z,102363.74
2018-10-11T23:38:07.370Z,102366.77
2018-10-11T23:40:35.910Z,102360.95
2018-10-11T23:43:04.530Z,102360.45
2018-10-11T23:45:32.981Z,102362.98
2018-10-11T23:48:01.514Z,102363.30
2018-10-11T23:50:29.964Z,102357.48
2018-10-11T23:52:58.425Z,102350.76
2018-10-11T23:55:26.886Z,102339.39
2018-10-11T23:57:55.629Z,102341.91
